sensor_id;sensor_type;location;lat;lon;timestamp;temperature;humidity
55828;DHT22;41758;51.992;5.890;2022-07-23T00:01:37;24.60;58.40
55828;DHT22;41758;51.992;5.890;2022-07-23T00:04:03;24.60;58.20
55828;DHT22;41758;51.992;5.890;2022-07-23T00:06:29;24.60;57.90
55828;DHT22;41758;51.992;5.890;2022-07-23T00:08:55;24.50;56.90
55828;DHT22;41758;51.992;5.890;2022-07-23T00:11:21;24.40;56.10
55828;DHT22;41758;51.992;5.890;2022-07-23T00:13:47;24.40;56.00
55828;DHT22;41758;51.992;5.890;2022-07-23T00:16:13;24.40;56.20
55828;DHT22;41758;51.992;5.890;2022-07-23T00:18:39;24.40;56.50
55828;DHT22;41758;51.992;5.890;2022-07-23T00:21:05;24.40;57.00
55828;DHT22;41758;51.992;5.890;2022-07-23T00:23:31;24.40;57.60
55828;DHT22;41758;51.992;5.890;2022-07-23T00:25:56;24.40;58.40
55828;DHT22;41758;51.992;5.890;2022-07-23T00:28:22;24.40;58.30
55828;DHT22;41758;51.992;5.890;2022-07-23T00:30:48;24.40;57.70
55828;DHT22;41758;51.992;5.890;2022-07-23T00:33:14;24.40;57.80
55828;DHT22;41758;51.992;5.890;2022-07-23T00:35:40;24.40;57.10
55828;DHT22;41758;51.992;5.890;2022-07-23T00:38:10;24.30;56.70
55828;DHT22;41758;51.992;5.890;2022-07-23T00:40:37;24.30;57.20
55828;DHT22;41758;51.992;5.890;2022-07-23T00:43:03;24.30;57.10
55828;DHT22;41758;51.992;5.890;2022-07-23T00:45:30;24.30;57.40
55828;DHT22;41758;51.992;5.890;2022-07-23T00:47:55;24.30;57.80
55828;DHT22;41758;51.992;5.890;2022-07-23T00:50:21;24.30;58.80
55828;DHT22;41758;51.992;5.890;2022-07-23T00:52:47;24.30;59.70
55828;DHT22;41758;51.992;5.890;2022-07-23T00:55:13;24.40;60.20
55828;DHT22;41758;51.992;5.890;2022-07-23T00:57:40;24.30;60.40
55828;DHT22;41758;51.992;5.890;2022-07-23T01:00:08;24.30;60.00
55828;DHT22;41758;51.992;5.890;2022-07-23T01:02:34;24.30;58.90
55828;DHT22;41758;51.992;5.890;2022-07-23T01:05:00;24.30;59.50
55828;DHT22;41758;51.992;5.890;2022-07-23T01:07:26;24.30;60.00
55828;DHT22;41758;51.992;5.890;2022-07-23T01:09:54;24.30;60.20
55828;DHT22;41758;51.992;5.890;2022-07-23T01:12:19;24.20;59.10
55828;DHT22;41758;51.992;5.890;2022-07-23T01:14:45;24.20;57.90
55828;DHT22;41758;51.992;5.890;2022-07-23T01:17:18;24.10;58.50
55828;DHT22;41758;51.992;5.890;2022-07-23T01:19:44;24.10;58.70
55828;DHT22;41758;51.992;5.890;2022-07-23T01:22:10;24.10;58.60
55828;DHT22;41758;51.992;5.890;2022-07-23T01:24:35;24.10;58.00
55828;DHT22;41758;51.992;5.890;2022-07-23T01:27:03;24.10;57.40
55828;DHT22;41758;51.992;5.890;2022-07-23T01:29:31;24.10;57.50
55828;DHT22;41758;51.992;5.890;2022-07-23T01:32:00;24.00;56.80
55828;DHT22;41758;51.992;5.890;2022-07-23T01:34:26;24.00;56.10
55828;DHT22;41758;51.992;5.890;2022-07-23T01:36:52;23.90;55.60
55828;DHT22;41758;51.992;5.890;2022-07-23T01:39:17;24.00;55.40
55828;DHT22;41758;51.992;5.890;2022-07-23T01:41:43;23.90;56.30
55828;DHT22;41758;51.992;5.890;2022-07-23T01:44:09;24.00;58.00
55828;DHT22;41758;51.992;5.890;2022-07-23T01:46:38;24.00;59.30
55828;DHT22;41758;51.992;5.890;2022-07-23T01:49:04;24.00;59.70
55828;DHT22;41758;51.992;5.890;2022-07-23T01:51:48;23.90;58.30
55828;DHT22;41758;51.992;5.890;2022-07-23T01:54:33;23.90;56.80
55828;DHT22;41758;51.992;5.890;2022-07-23T01:57:00;23.90;57.40
55828;DHT22;41758;51.992;5.890;2022-07-23T01:59:27;23.90;56.90
55828;DHT22;41758;51.992;5.890;2022-07-23T02:01:53;23.80;56.40
55828;DHT22;41758;51.992;5.890;2022-07-23T02:04:20;23.90;57.80
55828;DHT22;41758;51.992;5.890;2022-07-23T02:06:46;23.90;59.00
55828;DHT22;41758;51.992;5.890;2022-07-23T02:09:12;23.90;58.60
55828;DHT22;41758;51.992;5.890;2022-07-23T02:11:38;23.90;57.90
55828;DHT22;41758;51.992;5.890;2022-07-23T02:14:04;23.80;58.30
55828;DHT22;41758;51.992;5.890;2022-07-23T02:16:30;23.90;57.60
55828;DHT22;41758;51.992;5.890;2022-07-23T02:19:01;23.80;57.10
55828;DHT22;41758;51.992;5.890;2022-07-23T02:21:27;23.90;57.40
55828;DHT22;41758;51.992;5.890;2022-07-23T02:23:52;23.80;57.00
55828;DHT22;41758;51.992;5.890;2022-07-23T02:26:19;23.80;57.10
55828;DHT22;41758;51.992;5.890;2022-07-23T02:28:45;23.80;57.70
55828;DHT22;41758;51.992;5.890;2022-07-23T02:31:11;23.90;58.40
55828;DHT22;41758;51.992;5.890;2022-07-23T02:33:36;23.90;57.80
55828;DHT22;41758;51.992;5.890;2022-07-23T02:36:02;23.80;57.20
55828;DHT22;41758;51.992;5.890;2022-07-23T02:38:28;23.80;56.60
55828;DHT22;41758;51.992;5.890;2022-07-23T02:40:53;23.80;57.60
55828;DHT22;41758;51.992;5.890;2022-07-23T02:43:19;23.80;57.30
55828;DHT22;41758;51.992;5.890;2022-07-23T02:45:45;23.80;57.40
55828;DHT22;41758;51.992;5.890;2022-07-23T02:48:11;23.80;57.50
55828;DHT22;41758;51.992;5.890;2022-07-23T02:50:42;23.80;58.00
55828;DHT22;41758;51.992;5.890;2022-07-23T02:53:08;23.80;59.10
55828;DHT22;41758;51.992;5.890;2022-07-23T02:55:34;23.80;59.40
55828;DHT22;41758;51.992;5.890;2022-07-23T02:58:01;23.80;59.10
55828;DHT22;41758;51.992;5.890;2022-07-23T03:00:28;23.80;58.40
55828;DHT22;41758;51.992;5.890;2022-07-23T03:02:54;23.80;58.30
55828;DHT22;41758;51.992;5.890;2022-07-23T03:05:19;23.80;57.90
55828;DHT22;41758;51.992;5.890;2022-07-23T03:07:45;23.80;57.70
55828;DHT22;41758;51.992;5.890;2022-07-23T03:10:11;23.80;58.30
55828;DHT22;41758;51.992;5.890;2022-07-23T03:12:36;23.80;57.40
55828;DHT22;41758;51.992;5.890;2022-07-23T03:15:03;23.80;57.80
55828;DHT22;41758;51.992;5.890;2022-07-23T03:17:28;23.80;57.70
55828;DHT22;41758;51.992;5.890;2022-07-23T03:19:54;23.80;57.60
55828;DHT22;41758;51.992;5.890;2022-07-23T03:22:22;23.80;58.20
55828;DHT22;41758;51.992;5.890;2022-07-23T03:24:48;23.80;58.60
55828;DHT22;41758;51.992;5.890;2022-07-23T03:27:23;23.80;59.30
55828;DHT22;41758;51.992;5.890;2022-07-23T03:29:53;23.80;60.20
55828;DHT22;41758;51.992;5.890;2022-07-23T03:32:20;23.80;60.20
55828;DHT22;41758;51.992;5.890;2022-07-23T03:34:45;23.80;60.60
55828;DHT22;41758;51.992;5.890;2022-07-23T03:37:12;23.80;60.80
55828;DHT22;41758;51.992;5.890;2022-07-23T03:39:38;23.80;61.00
55828;DHT22;41758;51.992;5.890;2022-07-23T03:42:05;23.80;61.20
55828;DHT22;41758;51.992;5.890;2022-07-23T03:44:31;23.80;61.70
55828;DHT22;41758;51.992;5.890;2022-07-23T03:46:57;23.80;62.00
55828;DHT22;41758;51.992;5.890;2022-07-23T03:49:22;23.80;62.20
55828;DHT22;41758;51.992;5.890;2022-07-23T03:51:48;23.80;62.40
55828;DHT22;41758;51.992;5.890;2022-07-23T03:54:14;23.80;62.50
55828;DHT22;41758;51.992;5.890;2022-07-23T03:56:40;23.70;62.60
55828;DHT22;41758;51.992;5.890;2022-07-23T03:59:06;23.80;62.50
55828;DHT22;41758;51.992;5.890;2022-07-23T04:01:32;23.80;62.50
55828;DHT22;41758;51.992;5.890;2022-07-23T04:03:58;23.70;62.60
55828;DHT22;41758;51.992;5.890;2022-07-23T04:06:24;23.80;62.80
55828;DHT22;41758;51.992;5.890;2022-07-23T04:08:52;23.80;62.80
55828;DHT22;41758;51.992;5.890;2022-07-23T04:11:18;23.80;62.80
55828;DHT22;41758;51.992;5.890;2022-07-23T04:13:43;23.70;62.50
55828;DHT22;41758;51.992;5.890;2022-07-23T04:16:10;23.70;62.20
55828;DHT22;41758;51.992;5.890;2022-07-23T04:18:36;23.70;61.00
55828;DHT22;41758;51.992;5.890;2022-07-23T04:21:10;23.70;60.60
55828;DHT22;41758;51.992;5.890;2022-07-23T04:23:37;23.70;60.30
55828;DHT22;41758;51.992;5.890;2022-07-23T04:26:02;23.70;60.10
55828;DHT22;41758;51.992;5.890;2022-07-23T04:28:29;23.70;60.30
55828;DHT22;41758;51.992;5.890;2022-07-23T04:30:58;23.70;60.40
55828;DHT22;41758;51.992;5.890;2022-07-23T04:33:24;23.70;60.70
55828;DHT22;41758;51.992;5.890;2022-07-23T04:35:53;23.70;61.50
55828;DHT22;41758;51.992;5.890;2022-07-23T04:38:19;23.70;61.80
55828;DHT22;41758;51.992;5.890;2022-07-23T04:40:47;23.70;62.10
55828;DHT22;41758;51.992;5.890;2022-07-23T04:43:13;23.70;62.50
55828;DHT22;41758;51.992;5.890;2022-07-23T04:45:44;23.70;62.60
55828;DHT22;41758;51.992;5.890;2022-07-23T04:48:11;23.70;62.80
55828;DHT22;41758;51.992;5.890;2022-07-23T04:50:37;23.70;62.90
55828;DHT22;41758;51.992;5.890;2022-07-23T04:53:04;23.70;63.00
55828;DHT22;41758;51.992;5.890;2022-07-23T04:55:30;23.80;63.20
55828;DHT22;41758;51.992;5.890;2022-07-23T04:57:56;23.70;63.20
55828;DHT22;41758;51.992;5.890;2022-07-23T05:00:22;23.70;63.20
55828;DHT22;41758;51.992;5.890;2022-07-23T05:02:48;23.70;63.30
55828;DHT22;41758;51.992;5.890;2022-07-23T05:05:14;23.80;63.40
55828;DHT22;41758;51.992;5.890;2022-07-23T05:07:41;23.80;63.30
55828;DHT22;41758;51.992;5.890;2022-07-23T05:10:07;23.80;63.30
55828;DHT22;41758;51.992;5.890;2022-07-23T05:12:33;23.70;63.40
55828;DHT22;41758;51.992;5.890;2022-07-23T05:14:59;23.80;63.50
55828;DHT22;41758;51.992;5.890;2022-07-23T05:17:25;23.80;63.50
55828;DHT22;41758;51.992;5.890;2022-07-23T05:19:51;23.80;63.50
55828;DHT22;41758;51.992;5.890;2022-07-23T05:22:17;23.80;63.50
55828;DHT22;41758;51.992;5.890;2022-07-23T05:24:43;23.80;63.50
55828;DHT22;41758;51.992;5.890;2022-07-23T05:27:09;23.80;63.50
55828;DHT22;41758;51.992;5.890;2022-07-23T05:29:35;23.80;63.50
55828;DHT22;41758;51.992;5.890;2022-07-23T05:32:00;23.80;63.40
55828;DHT22;41758;51.992;5.890;2022-07-23T05:34:28;23.80;63.10
55828;DHT22;41758;51.992;5.890;2022-07-23T05:36:55;23.80;62.70
55828;DHT22;41758;51.992;5.890;2022-07-23T05:39:21;23.80;62.50
55828;DHT22;41758;51.992;5.890;2022-07-23T05:41:47;23.90;62.50
55828;DHT22;41758;51.992;5.890;2022-07-23T05:44:13;23.90;62.40
55828;DHT22;41758;51.992;5.890;2022-07-23T05:46:41;23.90;62.30
55828;DHT22;41758;51.992;5.890;2022-07-23T05:49:10;23.90;62.40
55828;DHT22;41758;51.992;5.890;2022-07-23T05:51:55;23.90;62.50
55828;DHT22;41758;51.992;5.890;2022-07-23T05:54:34;23.90;62.50
55828;DHT22;41758;51.992;5.890;2022-07-23T05:57:00;23.90;62.10
55828;DHT22;41758;51.992;5.890;2022-07-23T05:59:26;23.90;61.30
55828;DHT22;41758;51.992;5.890;2022-07-23T06:01:51;23.90;61.30
55828;DHT22;41758;51.992;5.890;2022-07-23T06:04:17;23.90;61.40
55828;DHT22;41758;51.992;5.890;2022-07-23T06:06:54;23.90;60.80
55828;DHT22;41758;51.992;5.890;2022-07-23T06:09:19;23.90;61.00
55828;DHT22;41758;51.992;5.890;2022-07-23T06:11:45;24.00;60.90
55828;DHT22;41758;51.992;5.890;2022-07-23T06:14:13;23.90;60.00
55828;DHT22;41758;51.992;5.890;2022-07-23T06:16:48;23.90;58.80
55828;DHT22;41758;51.992;5.890;2022-07-23T06:19:14;23.90;57.60
55828;DHT22;41758;51.992;5.890;2022-07-23T06:21:40;23.90;56.80
55828;DHT22;41758;51.992;5.890;2022-07-23T06:24:06;23.90;57.90
55828;DHT22;41758;51.992;5.890;2022-07-23T06:26:32;23.90;59.10
55828;DHT22;41758;51.992;5.890;2022-07-23T06:28:59;24.00;59.90
55828;DHT22;41758;51.992;5.890;2022-07-23T06:31:25;24.00;60.40
55828;DHT22;41758;51.992;5.890;2022-07-23T06:33:51;23.90;58.90
55828;DHT22;41758;51.992;5.890;2022-07-23T06:36:17;24.00;59.70
55828;DHT22;41758;51.992;5.890;2022-07-23T06:38:43;24.00;60.10
55828;DHT22;41758;51.992;5.890;2022-07-23T06:41:08;24.00;57.70
55828;DHT22;41758;51.992;5.890;2022-07-23T06:43:34;24.00;58.60
55828;DHT22;41758;51.992;5.890;2022-07-23T06:46:00;24.00;59.70
55828;DHT22;41758;51.992;5.890;2022-07-23T06:48:29;24.00;60.80
55828;DHT22;41758;51.992;5.890;2022-07-23T06:50:55;24.00;59.80
55828;DHT22;41758;51.992;5.890;2022-07-23T06:53:23;24.10;59.40
55828;DHT22;41758;51.992;5.890;2022-07-23T06:55:49;24.00;59.10
55828;DHT22;41758;51.992;5.890;2022-07-23T06:58:14;24.10;59.80
55828;DHT22;41758;51.992;5.890;2022-07-23T07:00:41;24.10;60.20
55828;DHT22;41758;51.992;5.890;2022-07-23T07:03:06;24.10;59.50
55828;DHT22;41758;51.992;5.890;2022-07-23T07:05:32;24.10;58.70
55828;DHT22;41758;51.992;5.890;2022-07-23T07:07:58;24.10;59.70
55828;DHT22;41758;51.992;5.890;2022-07-23T07:10:24;24.10;60.30
55828;DHT22;41758;51.992;5.890;2022-07-23T07:12:49;24.20;60.60
55828;DHT22;41758;51.992;5.890;2022-07-23T07:15:15;24.20;61.20
55828;DHT22;41758;51.992;5.890;2022-07-23T07:17:41;24.20;61.40
55828;DHT22;41758;51.992;5.890;2022-07-23T07:20:08;24.20;60.00
55828;DHT22;41758;51.992;5.890;2022-07-23T07:22:34;24.20;59.40
55828;DHT22;41758;51.992;5.890;2022-07-23T07:24:59;24.20;60.30
55828;DHT22;41758;51.992;5.890;2022-07-23T07:27:25;24.30;60.30
55828;DHT22;41758;51.992;5.890;2022-07-23T07:29:51;24.30;59.60
55828;DHT22;41758;51.992;5.890;2022-07-23T07:32:16;24.30;59.70
55828;DHT22;41758;51.992;5.890;2022-07-23T07:34:42;24.20;59.70
55828;DHT22;41758;51.992;5.890;2022-07-23T07:37:08;24.30;59.80
55828;DHT22;41758;51.992;5.890;2022-07-23T07:39:33;24.20;58.10
55828;DHT22;41758;51.992;5.890;2022-07-23T07:41:59;24.20;57.50
55828;DHT22;41758;51.992;5.890;2022-07-23T07:44:25;24.30;57.80
55828;DHT22;41758;51.992;5.890;2022-07-23T07:46:51;24.30;59.50
55828;DHT22;41758;51.992;5.890;2022-07-23T07:49:17;24.30;59.00
55828;DHT22;41758;51.992;5.890;2022-07-23T07:51:45;24.30;58.50
55828;DHT22;41758;51.992;5.890;2022-07-23T07:54:11;24.30;58.70
55828;DHT22;41758;51.992;5.890;2022-07-23T07:56:37;24.30;58.60
55828;DHT22;41758;51.992;5.890;2022-07-23T07:59:02;24.30;58.50
55828;DHT22;41758;51.992;5.890;2022-07-23T08:01:28;24.40;59.30
55828;DHT22;41758;51.992;5.890;2022-07-23T08:03:54;24.30;58.70
55828;DHT22;41758;51.992;5.890;2022-07-23T08:06:20;24.40;59.60
55828;DHT22;41758;51.992;5.890;2022-07-23T08:08:45;24.40;57.80
55828;DHT22;41758;51.992;5.890;2022-07-23T08:11:11;24.40;59.10
55828;DHT22;41758;51.992;5.890;2022-07-23T08:13:36;24.40;58.90
55828;DHT22;41758;51.992;5.890;2022-07-23T08:16:02;24.40;59.30
55828;DHT22;41758;51.992;5.890;2022-07-23T08:18:28;24.40;59.70
55828;DHT22;41758;51.992;5.890;2022-07-23T08:20:54;24.50;59.60
55828;DHT22;41758;51.992;5.890;2022-07-23T08:23:19;24.50;60.00
55828;DHT22;41758;51.992;5.890;2022-07-23T08:25:48;24.50;60.10
55828;DHT22;41758;51.992;5.890;2022-07-23T08:28:15;24.50;58.50
55828;DHT22;41758;51.992;5.890;2022-07-23T08:30:42;24.50;57.90
55828;DHT22;41758;51.992;5.890;2022-07-23T08:33:16;24.50;57.60
55828;DHT22;41758;51.992;5.890;2022-07-23T08:35:47;24.60;57.80
55828;DHT22;41758;51.992;5.890;2022-07-23T08:38:15;24.60;57.90
55828;DHT22;41758;51.992;5.890;2022-07-23T08:40:43;24.60;58.10
55828;DHT22;41758;51.992;5.890;2022-07-23T08:43:17;24.60;59.80
55828;DHT22;41758;51.992;5.890;2022-07-23T08:45:47;24.60;58.40
55828;DHT22;41758;51.992;5.890;2022-07-23T08:48:15;24.60;54.50
55828;DHT22;41758;51.992;5.890;2022-07-23T08:50:43;24.60;56.90
55828;DHT22;41758;51.992;5.890;2022-07-23T08:53:10;24.60;57.50
55828;DHT22;41758;51.992;5.890;2022-07-23T08:55:35;24.60;57.80
55828;DHT22;41758;51.992;5.890;2022-07-23T08:58:02;24.60;56.40
55828;DHT22;41758;51.992;5.890;2022-07-23T09:00:28;24.70;57.10
55828;DHT22;41758;51.992;5.890;2022-07-23T09:02:53;24.70;58.20
55828;DHT22;41758;51.992;5.890;2022-07-23T09:05:20;24.70;56.70
55828;DHT22;41758;51.992;5.890;2022-07-23T09:11:08;24.70;56.20
55828;DHT22;41758;51.992;5.890;2022-07-23T09:13:50;24.80;56.50
55828;DHT22;41758;51.992;5.890;2022-07-23T09:18:58;24.80;58.40
55828;DHT22;41758;51.992;5.890;2022-07-23T09:21:28;24.80;57.00
55828;DHT22;41758;51.992;5.890;2022-07-23T09:24:11;24.80;56.60
55828;DHT22;41758;51.992;5.890;2022-07-23T09:26:41;24.90;58.30
55828;DHT22;41758;51.992;5.890;2022-07-23T09:29:17;24.90;57.70
55828;DHT22;41758;51.992;5.890;2022-07-23T09:31:47;24.90;58.80
55828;DHT22;41758;51.992;5.890;2022-07-23T09:34:34;25.00;58.70
55828;DHT22;41758;51.992;5.890;2022-07-23T09:37:11;25.00;57.70
55828;DHT22;41758;51.992;5.890;2022-07-23T09:39:39;25.10;59.10
55828;DHT22;41758;51.992;5.890;2022-07-23T09:42:25;25.10;58.80
55828;DHT22;41758;51.992;5.890;2022-07-23T09:44:52;25.10;57.50
55828;DHT22;41758;51.992;5.890;2022-07-23T09:47:19;25.10;54.80
55828;DHT22;41758;51.992;5.890;2022-07-23T09:50:08;25.00;55.10
55828;DHT22;41758;51.992;5.890;2022-07-23T09:52:46;25.10;56.60
55828;DHT22;41758;51.992;5.890;2022-07-23T09:55:13;25.20;57.50
55828;DHT22;41758;51.992;5.890;2022-07-23T09:57:41;25.20;58.60
55828;DHT22;41758;51.992;5.890;2022-07-23T10:00:08;25.30;58.50
55828;DHT22;41758;51.992;5.890;2022-07-23T10:02:36;25.30;59.20
55828;DHT22;41758;51.992;5.890;2022-07-23T10:05:21;25.30;58.70
55828;DHT22;41758;51.992;5.890;2022-07-23T10:08:26;25.40;58.40
55828;DHT22;41758;51.992;5.890;2022-07-23T10:11:12;25.40;56.50
55828;DHT22;41758;51.992;5.890;2022-07-23T10:14:02;25.50;58.30
55828;DHT22;41758;51.992;5.890;2022-07-23T10:16:41;25.50;59.00
55828;DHT22;41758;51.992;5.890;2022-07-23T10:19:07;25.60;58.70
55828;DHT22;41758;51.992;5.890;2022-07-23T10:21:47;25.70;56.20
55828;DHT22;41758;51.992;5.890;2022-07-23T10:27:05;25.80;56.50
55828;DHT22;41758;51.992;5.890;2022-07-23T10:29:45;25.90;56.80
55828;DHT22;41758;51.992;5.890;2022-07-23T10:35:29;26.20;56.70
55828;DHT22;41758;51.992;5.890;2022-07-23T10:38:02;26.30;54.00
55828;DHT22;41758;51.992;5.890;2022-07-23T10:40:30;26.30;52.90
55828;DHT22;41758;51.992;5.890;2022-07-23T10:42:59;26.50;54.60
55828;DHT22;41758;51.992;5.890;2022-07-23T10:45:27;26.60;52.80
55828;DHT22;41758;51.992;5.890;2022-07-23T10:47:54;26.80;54.80
55828;DHT22;41758;51.992;5.890;2022-07-23T10:50:24;27.00;54.50
55828;DHT22;41758;51.992;5.890;2022-07-23T10:53:16;27.20;54.30
55828;DHT22;41758;51.992;5.890;2022-07-23T10:55:47;27.50;54.40
55828;DHT22;41758;51.992;5.890;2022-07-23T10:58:18;27.90;53.10
55828;DHT22;41758;51.992;5.890;2022-07-23T11:00:45;28.30;52.50
55828;DHT22;41758;51.992;5.890;2022-07-23T11:03:32;28.70;51.10
55828;DHT22;41758;51.992;5.890;2022-07-23T11:05:58;29.20;49.30
55828;DHT22;41758;51.992;5.890;2022-07-23T11:08:24;29.80;49.00
55828;DHT22;41758;51.992;5.890;2022-07-23T11:11:15;30.10;48.10
55828;DHT22;41758;51.992;5.890;2022-07-23T11:13:42;30.40;46.70
55828;DHT22;41758;51.992;5.890;2022-07-23T11:16:21;30.80;44.30
55828;DHT22;41758;51.992;5.890;2022-07-23T11:34:44;32.50;40.50
55828;DHT22;41758;51.992;5.890;2022-07-23T11:37:26;32.00;40.80
55828;DHT22;41758;51.992;5.890;2022-07-23T11:39:57;31.50;42.50
55828;DHT22;41758;51.992;5.890;2022-07-23T11:42:23;31.30;43.50
55828;DHT22;41758;51.992;5.890;2022-07-23T11:44:50;31.30;44.70
55828;DHT22;41758;51.992;5.890;2022-07-23T11:47:22;31.90;44.40
55828;DHT22;41758;51.992;5.890;2022-07-23T11:50:00;32.40;42.20
55828;DHT22;41758;51.992;5.890;2022-07-23T11:52:27;32.90;40.60
55828;DHT22;41758;51.992;5.890;2022-07-23T11:54:59;33.40;40.20
55828;DHT22;41758;51.992;5.890;2022-07-23T11:57:30;33.70;39.00
55828;DHT22;41758;51.992;5.890;2022-07-23T12:00:07;34.10;39.10
55828;DHT22;41758;51.992;5.890;2022-07-23T12:02:48;34.40;38.30
55828;DHT22;41758;51.992;5.890;2022-07-23T12:05:16;34.60;38.60
55828;DHT22;41758;51.992;5.890;2022-07-23T12:07:52;34.10;39.70
55828;DHT22;41758;51.992;5.890;2022-07-23T12:11:06;33.60;39.30
55828;DHT22;41758;51.992;5.890;2022-07-23T12:13:36;33.70;40.00
55828;DHT22;41758;51.992;5.890;2022-07-23T12:16:18;33.80;39.50
55828;DHT22;41758;51.992;5.890;2022-07-23T12:18:44;34.10;39.40
55828;DHT22;41758;51.992;5.890;2022-07-23T12:21:10;34.20;39.80
55828;DHT22;41758;51.992;5.890;2022-07-23T12:23:36;33.80;38.80
55828;DHT22;41758;51.992;5.890;2022-07-23T12:26:03;34.00;38.70
55828;DHT22;41758;51.992;5.890;2022-07-23T12:28:31;34.40;39.20
55828;DHT22;41758;51.992;5.890;2022-07-23T12:30:59;34.80;37.20
55828;DHT22;41758;51.992;5.890;2022-07-23T12:33:28;35.10;37.40
55828;DHT22;41758;51.992;5.890;2022-07-23T12:35:56;35.30;37.90
55828;DHT22;41758;51.992;5.890;2022-07-23T12:38:40;35.60;37.80
55828;DHT22;41758;51.992;5.890;2022-07-23T12:41:07;35.70;36.50
55828;DHT22;41758;51.992;5.890;2022-07-23T12:43:36;35.80;35.60
55828;DHT22;41758;51.992;5.890;2022-07-23T12:46:05;35.90;34.60
55828;DHT22;41758;51.992;5.890;2022-07-23T12:48:33;36.00;34.90
55828;DHT22;41758;51.992;5.890;2022-07-23T12:51:14;36.10;35.60
55828;DHT22;41758;51.992;5.890;2022-07-23T12:53:52;36.20;35.50
55828;DHT22;41758;51.992;5.890;2022-07-23T12:56:35;36.20;35.00
55828;DHT22;41758;51.992;5.890;2022-07-23T13:01:34;35.50;35.20
55828;DHT22;41758;51.992;5.890;2022-07-23T13:04:06;34.60;36.20
55828;DHT22;41758;51.992;5.890;2022-07-23T13:06:38;33.70;36.50
55828;DHT22;41758;51.992;5.890;2022-07-23T13:09:08;32.90;38.60
55828;DHT22;41758;51.992;5.890;2022-07-23T13:11:34;32.30;39.50
55828;DHT22;41758;51.992;5.890;2022-07-23T13:14:03;31.90;41.80
55828;DHT22;41758;51.992;5.890;2022-07-23T13:16:30;31.60;42.70
55828;DHT22;41758;51.992;5.890;2022-07-23T13:19:02;31.20;43.90
55828;DHT22;41758;51.992;5.890;2022-07-23T13:21:28;30.90;44.90
55828;DHT22;41758;51.992;5.890;2022-07-23T13:23:55;30.80;45.80
55828;DHT22;41758;51.992;5.890;2022-07-23T13:26:21;30.90;42.30
55828;DHT22;41758;51.992;5.890;2022-07-23T13:28:47;31.10;43.90
55828;DHT22;41758;51.992;5.890;2022-07-23T13:31:14;31.50;44.00
55828;DHT22;41758;51.992;5.890;2022-07-23T13:33:40;31.90;43.90
55828;DHT22;41758;51.992;5.890;2022-07-23T13:36:06;32.00;41.80
55828;DHT22;41758;51.992;5.890;2022-07-23T13:38:32;32.10;42.90
55828;DHT22;41758;51.992;5.890;2022-07-23T13:40:59;32.10;41.90
55828;DHT22;41758;51.992;5.890;2022-07-23T13:43:29;31.90;42.40
55828;DHT22;41758;51.992;5.890;2022-07-23T13:45:56;31.60;41.50
55828;DHT22;41758;51.992;5.890;2022-07-23T13:48:22;31.20;41.50
55828;DHT22;41758;51.992;5.890;2022-07-23T13:50:48;30.80;42.10
55828;DHT22;41758;51.992;5.890;2022-07-23T13:53:20;30.50;43.30
55828;DHT22;41758;51.992;5.890;2022-07-23T13:55:48;30.20;43.30
55828;DHT22;41758;51.992;5.890;2022-07-23T13:58:14;29.90;44.40
55828;DHT22;41758;51.992;5.890;2022-07-23T14:00:46;29.80;44.60
55828;DHT22;41758;51.992;5.890;2022-07-23T14:03:13;29.70;46.80
55828;DHT22;41758;51.992;5.890;2022-07-23T14:05:39;29.50;47.60
55828;DHT22;41758;51.992;5.890;2022-07-23T14:08:06;29.50;47.70
55828;DHT22;41758;51.992;5.890;2022-07-23T14:10:32;29.40;47.50
55828;DHT22;41758;51.992;5.890;2022-07-23T14:12:58;29.30;47.30
55828;DHT22;41758;51.992;5.890;2022-07-23T14:15:25;29.20;45.50
55828;DHT22;41758;51.992;5.890;2022-07-23T14:17:53;29.10;47.70
55828;DHT22;41758;51.992;5.890;2022-07-23T14:20:19;29.10;47.60
55828;DHT22;41758;51.992;5.890;2022-07-23T14:22:45;29.00;47.00
55828;DHT22;41758;51.992;5.890;2022-07-23T14:25:11;28.90;48.80
55828;DHT22;41758;51.992;5.890;2022-07-23T14:27:37;28.90;47.90
55828;DHT22;41758;51.992;5.890;2022-07-23T14:30:05;28.80;48.40
55828;DHT22;41758;51.992;5.890;2022-07-23T14:32:31;28.80;49.10
55828;DHT22;41758;51.992;5.890;2022-07-23T14:34:57;28.80;49.60
55828;DHT22;41758;51.992;5.890;2022-07-23T14:37:31;28.70;50.00
55828;DHT22;41758;51.992;5.890;2022-07-23T14:40:06;28.70;50.10
55828;DHT22;41758;51.992;5.890;2022-07-23T14:42:32;28.60;50.40
55828;DHT22;41758;51.992;5.890;2022-07-23T14:45:04;28.60;50.50
55828;DHT22;41758;51.992;5.890;2022-07-23T14:47:31;28.50;50.20
55828;DHT22;41758;51.992;5.890;2022-07-23T14:49:57;28.50;51.00
55828;DHT22;41758;51.992;5.890;2022-07-23T14:52:23;28.50;51.30
55828;DHT22;41758;51.992;5.890;2022-07-23T14:54:52;28.40;50.50
55828;DHT22;41758;51.992;5.890;2022-07-23T14:57:17;28.40;51.00
55828;DHT22;41758;51.992;5.890;2022-07-23T14:59:46;28.40;51.30
55828;DHT22;41758;51.992;5.890;2022-07-23T15:02:14;28.40;51.20
55828;DHT22;41758;51.992;5.890;2022-07-23T15:04:43;28.40;51.10
55828;DHT22;41758;51.992;5.890;2022-07-23T15:07:08;28.40;51.50
55828;DHT22;41758;51.992;5.890;2022-07-23T15:09:34;28.40;51.50
55828;DHT22;41758;51.992;5.890;2022-07-23T15:12:00;28.40;51.50
55828;DHT22;41758;51.992;5.890;2022-07-23T15:14:26;28.40;51.30
55828;DHT22;41758;51.992;5.890;2022-07-23T15:16:51;28.40;51.50
55828;DHT22;41758;51.992;5.890;2022-07-23T15:19:17;28.40;51.60
55828;DHT22;41758;51.992;5.890;2022-07-23T15:21:43;28.40;51.70
55828;DHT22;41758;51.992;5.890;2022-07-23T15:24:11;28.40;50.20
55828;DHT22;41758;51.992;5.890;2022-07-23T15:26:37;28.30;50.30
55828;DHT22;41758;51.992;5.890;2022-07-23T15:29:05;28.30;51.30
55828;DHT22;41758;51.992;5.890;2022-07-23T15:31:32;28.30;51.50
55828;DHT22;41758;51.992;5.890;2022-07-23T15:33:58;28.20;47.20
55828;DHT22;41758;51.992;5.890;2022-07-23T15:36:23;28.20;47.40
55828;DHT22;41758;51.992;5.890;2022-07-23T15:38:49;28.20;50.30
55828;DHT22;41758;51.992;5.890;2022-07-23T15:41:15;28.20;51.10
55828;DHT22;41758;51.992;5.890;2022-07-23T15:43:43;28.20;50.80
55828;DHT22;41758;51.992;5.890;2022-07-23T15:46:09;28.20;50.60
55828;DHT22;41758;51.992;5.890;2022-07-23T15:48:35;28.20;51.70
55828;DHT22;41758;51.992;5.890;2022-07-23T15:51:02;28.20;51.80
55828;DHT22;41758;51.992;5.890;2022-07-23T15:53:28;28.10;47.80
55828;DHT22;41758;51.992;5.890;2022-07-23T15:55:54;28.10;51.00
55828;DHT22;41758;51.992;5.890;2022-07-23T15:58:21;28.10;51.70
55828;DHT22;41758;51.992;5.890;2022-07-23T16:00:47;28.10;51.60
55828;DHT22;41758;51.992;5.890;2022-07-23T16:03:13;28.10;52.20
55828;DHT22;41758;51.992;5.890;2022-07-23T16:05:41;28.10;50.70
55828;DHT22;41758;51.992;5.890;2022-07-23T16:08:07;28.10;51.30